Time;durP1;ratioP1;P1;durP2;ratioP2;P2;SDS_P1;SDS_P2;PMS_P1;PMS_P2;Temp;Humidity;BMP_temperature;BMP_pressure;BME280_temperature;BME280_humidity;BME280_pressure;Samples;Min_cycle;Max_cycle;Signal;HPM_P1;HPM_P2
2023/01/29 00:02:05;;;;;;;14.23;7.97;;;;;;;-0.43;100.00;100682.47;5071185;28;20334;-76
2023/01/29 00:04:31;;;;;;;13.30;7.67;;;;;;;-0.48;100.00;100684.53;5071051;28;20047;-75
2023/01/29 00:06:57;;;;;;;15.90;7.70;;;;;;;-0.46;100.00;100688.75;5071345;28;20344;-76
2023/01/29 00:09:22;;;;;;;18.03;8.13;;;;;;;-0.42;100.00;100697.28;5071350;28;20033;-76
2023/01/29 00:11:48;;;;;;;13.07;6.87;;;;;;;-0.43;100.00;100691.19;5071042;28;20067;-76
2023/01/29 00:14:13;;;;;;;13.30;7.23;;;;;;;-0.49;100.00;100694.19;5071148;28;20021;-76
2023/01/29 00:16:39;;;;;;;12.30;7.43;;;;;;;-0.48;100.00;100695.03;5071257;28;20043;-76
2023/01/29 00:19:06;;;;;;;13.37;7.70;;;;;;;-0.50;100.00;100694.28;5071108;28;20475;-76
2023/01/29 00:21:31;;;;;;;15.20;7.57;;;;;;;-0.48;100.00;100693.25;5071050;28;20066;-76
2023/01/29 00:23:57;;;;;;;15.10;7.53;;;;;;;-0.42;100.00;100689.41;5071016;28;20257;-76
2023/01/29 00:26:24;;;;;;;14.17;7.70;;;;;;;-0.44;100.00;100684.25;5071199;28;20828;-76
2023/01/29 00:28:49;;;;;;;14.27;7.70;;;;;;;-0.50;100.00;100684.63;5070961;28;20284;-76
2023/01/29 00:31:18;;;;;;;15.67;8.00;;;;;;;-0.49;100.00;100696.81;5071002;28;20277;-76
2023/01/29 00:33:44;;;;;;;12.40;6.30;;;;;;;-0.52;100.00;100691.72;5071102;28;20032;-76
2023/01/29 00:36:12;;;;;;;12.23;6.10;;;;;;;-0.55;100.00;100689.28;5071034;28;20264;-76
2023/01/29 00:38:38;;;;;;;12.70;6.70;;;;;;;-0.57;100.00;100685.88;5070800;28;20039;-76
2023/01/29 00:46:40;;;;;;;13.30;6.70;;;;;;;-0.54;100.00;100690.97;5071147;28;20402;-76
2023/01/29 00:49:07;;;;;;;11.30;5.87;;;;;;;-0.62;100.00;100682.69;5070661;28;20278;-76
2023/01/29 00:51:33;;;;;;;14.80;7.10;;;;;;;-0.71;100.00;100677.97;5070593;28;20104;-76
2023/01/29 00:53:59;;;;;;;13.83;7.17;;;;;;;-0.60;100.00;100688.72;5073352;28;20368;-76
2023/01/29 00:56:24;;;;;;;15.47;7.67;;;;;;;-0.61;100.00;100689.66;5074464;28;20395;-76
2023/01/29 00:58:50;;;;;;;14.73;6.97;;;;;;;-0.71;100.00;100698.97;5083861;28;20559;-76
2023/01/29 01:01:15;;;;;;;11.57;6.60;;;;;;;-0.70;100.00;100681.44;5094525;28;20080;-76
2023/01/29 01:03:45;;;;;;;13.03;6.43;;;;;;;-0.75;100.00;100679.94;5094267;28;20051;-76
2023/01/29 01:06:11;;;;;;;13.77;6.97;;;;;;;-0.69;100.00;100694.47;5094429;28;20020;-76
2023/01/29 01:11:21;;;;;;;13.83;6.87;;;;;;;-0.70;100.00;100692.81;5094321;28;20401;-76
2023/01/29 01:13:47;;;;;;;14.07;6.73;;;;;;;-0.76;100.00;100682.63;5094412;28;20253;-75
2023/01/29 01:16:16;;;;;;;14.47;6.97;;;;;;;-0.77;100.00;100691.44;5076127;28;20055;-76
2023/01/29 01:18:42;;;;;;;12.83;6.33;;;;;;;-0.79;100.00;100688.91;5094200;28;20391;-76
2023/01/29 01:21:07;;;;;;;13.93;6.33;;;;;;;-0.74;100.00;100683.41;5094141;28;20413;-76
2023/01/29 01:23:33;;;;;;;14.43;7.10;;;;;;;-0.74;100.00;100693.91;5094084;28;20264;-76
2023/01/29 01:25:59;;;;;;;14.00;6.87;;;;;;;-0.75;100.00;100684.31;5094057;28;20024;-76
2023/01/29 01:28:25;;;;;;;12.90;6.63;;;;;;;-0.75;100.00;100689.56;5094057;28;20106;-76
2023/01/29 01:30:50;;;;;;;11.03;5.90;;;;;;;-0.77;100.00;100684.41;5093922;28;20027;-76
2023/01/29 01:33:16;;;;;;;12.13;6.13;;;;;;;-0.81;100.00;100682.88;5094013;28;20084;-76
2023/01/29 01:35:42;;;;;;;11.80;5.93;;;;;;;-0.78;100.00;100676.63;5093931;28;20073;-76
2023/01/29 01:38:07;;;;;;;14.07;6.67;;;;;;;-0.79;100.00;100685.41;5075679;28;20107;-76
2023/01/29 01:40:32;;;;;;;13.20;6.67;;;;;;;-0.80;100.00;100684.56;5093808;28;20124;-76
2023/01/29 01:42:59;;;;;;;14.80;7.17;;;;;;;-0.79;100.00;100690.66;5093831;28;20023;-76
2023/01/29 01:45:36;;;;;;;12.53;6.80;;;;;;;-0.82;100.00;100694.34;5093873;28;20080;-76
2023/01/29 01:48:25;;;;;;;14.07;7.30;;;;;;;-0.78;100.00;100687.97;5093754;28;20322;-76
2023/01/29 01:51:02;;;;;;;14.90;6.60;;;;;;;-0.83;100.00;100692.66;5093536;28;20256;-76
2023/01/29 01:53:33;;;;;;;14.87;7.17;;;;;;;-0.88;100.00;100692.03;5093723;28;20264;-76
2023/01/29 01:56:06;;;;;;;13.00;6.60;;;;;;;-0.84;100.00;100687.47;5093438;28;20620;-76
2023/01/29 01:58:44;;;;;;;13.32;6.32;;;;;;;-0.86;100.00;100681.47;5086133;28;20264;-76
2023/01/29 02:01:11;;;;;;;12.23;5.88;;;;;;;-0.87;100.00;100688.50;5073223;28;20082;-76
2023/01/29 02:10:08;;;;;;;12.07;5.93;;;;;;;-0.92;100.00;100694.91;5073030;28;20252;-76
2023/01/29 02:12:37;;;;;;;12.37;6.17;;;;;;;-0.95;100.00;100695.97;5072951;28;20491;-76
2023/01/29 02:15:05;;;;;;;10.30;5.63;;;;;;;-0.98;100.00;100697.88;5072991;28;20261;-76
2023/01/29 02:17:31;;;;;;;11.13;5.60;;;;;;;-0.98;100.00;100690.03;5072839;28;20249;-76
2023/01/29 02:20:19;;;;;;;12.17;6.23;;;;;;;-0.95;100.00;100700.34;5072753;28;20119;-76
2023/01/29 02:22:58;;;;;;;10.83;5.67;;;;;;;-0.99;100.00;100697.03;5072857;28;20725;-76
2023/01/29 02:25:49;;;;;;;10.85;5.88;;;;;;;-0.98;100.00;100695.28;5054846;28;20273;-76
2023/01/29 02:28:20;;;;;;;12.80;6.00;;;;;;;-1.03;100.00;100702.53;5072786;28;20070;-76
2023/01/29 02:31:12;;;;;;;12.20;6.10;;;;;;;-1.03;100.00;100700.75;5054775;28;20483;-76
2023/01/29 02:34:17;;;;;;;14.23;6.43;;;;;;;-0.96;100.00;100699.50;5072190;28;20503;-76
2023/01/29 02:36:54;;;;;;;11.63;6.30;;;;;;;-1.02;100.00;100694.59;5072604;28;20258;-76
2023/01/29 02:39:41;;;;;;;12.65;6.45;;;;;;;-0.99;100.00;100704.06;5072461;28;20264;-76
2023/01/29 02:42:18;;;;;;;12.87;6.43;;;;;;;-1.05;100.00;100701.81;5072543;28;20048;-76
2023/01/29 02:44:54;;;;;;;14.30;6.90;;;;;;;-1.02;100.00;100709.47;5072486;28;20609;-76
2023/01/29 02:47:32;;;;;;;12.02;6.07;;;;;;;-1.08;100.00;100710.69;5072405;28;20048;-76
2023/01/29 02:50:27;;;;;;;13.13;6.63;;;;;;;-1.07;100.00;100720.25;5072345;28;20036;-76
2023/01/29 02:53:04;;;;;;;14.80;7.07;;;;;;;-1.05;100.00;100721.00;5054257;28;20648;-76
2023/01/29 02:55:47;;;;;;;14.68;6.88;;;;;;;-1.05;100.00;100717.53;5072251;28;20257;-76
2023/01/29 02:58:35;;;;;;;11.60;6.28;;;;;;;-1.09;100.00;100711.59;5076354;28;20020;-76
2023/01/29 03:01:08;;;;;;;15.25;7.57;;;;;;;-1.10;100.00;100723.88;5092128;28;20017;-76
2023/01/29 03:03:41;;;;;;;12.98;6.65;;;;;;;-1.13;100.00;100734.53;5092260;28;20510;-76
2023/01/29 03:06:22;;;;;;;14.45;7.65;;;;;;;-1.17;100.00;100735.66;5092287;28;20387;-76
2023/01/29 03:09:01;;;;;;;12.02;6.40;;;;;;;-1.11;100.00;100740.53;5092150;28;20020;-76
2023/01/29 03:11:32;;;;;;;13.43;6.87;;;;;;;-1.13;100.00;100739.78;5092009;28;20024;-76
2023/01/29 03:14:24;;;;;;;11.75;6.15;;;;;;;-1.01;100.00;100743.50;5091998;28;20257;-76
2023/01/29 03:16:51;;;;;;;13.60;7.27;;;;;;;-1.05;100.00;100738.53;5091858;28;20099;-76
2023/01/29 03:19:40;;;;;;;13.00;7.15;;;;;;;-1.10;100.00;100750.09;5073398;28;20648;-76
2023/01/29 03:22:09;;;;;;;12.73;7.23;;;;;;;-1.08;100.00;100743.94;5091884;28;20081;-76
2023/01/29 03:33:20;;;;;;;12.93;6.43;;;;;;;-1.11;100.00;100732.66;5091733;28;20043;-76
2023/01/29 03:35:55;;;;;;;12.10;6.50;;;;;;;-1.08;100.00;100723.78;5091691;28;20307;-76
2023/01/29 03:38:20;;;;;;;11.57;5.90;;;;;;;-1.08;100.00;100721.16;5091717;28;20608;-76
2023/01/29 03:41:01;;;;;;;11.30;6.10;;;;;;;-1.16;100.00;100726.00;5091680;28;20335;-76
2023/01/29 03:44:04;;;;;;;11.80;6.15;;;;;;;-1.18;100.00;100731.31;5091789;28;20043;-76
2023/01/29 03:46:40;;;;;;;9.53;5.03;;;;;;;-1.25;100.00;100718.59;5091757;28;20024;-76
2023/01/29 03:49:29;;;;;;;9.57;5.22;;;;;;;-1.19;100.00;100713.03;5091505;28;20260;-76
2023/01/29 03:52:24;;;;;;;8.73;4.85;;;;;;;-1.22;100.00;100714.06;5091548;28;20177;-76
2023/01/29 03:54:59;;;;;;;10.40;4.97;;;;;;;-1.35;100.00;100702.53;5083142;28;20475;-76
2023/01/29 03:57:37;;;;;;;9.63;4.88;;;;;;;-1.36;100.00;100707.84;5091482;28;20046;-76
2023/01/29 04:00:13;;;;;;;9.18;4.72;;;;;;;-1.44;100.00;100707.44;5050425;28;20086;-76
2023/01/29 04:03:11;;;;;;;9.65;4.75;;;;;;;-1.52;100.00;100702.59;5051401;28;20032;-76
2023/01/29 04:05:46;;;;;;;11.10;5.60;;;;;;;-1.60;100.00;100697.75;5051250;28;20048;-76
2023/01/29 04:08:19;;;;;;;8.80;4.80;;;;;;;-1.59;100.00;100704.69;5050134;28;20110;-76
2023/01/29 04:10:50;;;;;;;9.43;5.20;;;;;;;-1.58;100.00;100700.28;5051392;28;20037;-76
2023/01/29 04:13:17;;;;;;;10.02;5.55;;;;;;;-1.71;100.00;100699.25;5051233;28;20021;-76
2023/01/29 04:15:49;;;;;;;10.38;5.05;;;;;;;-1.61;100.00;100693.44;5051341;28;20394;-76
2023/01/29 04:18:14;;;;;;;10.60;5.45;;;;;;;-1.69;100.00;100682.50;5051270;28;20033;-76
2023/01/29 04:20:41;;;;;;;11.10;5.27;;;;;;;-1.68;100.00;100689.44;5051251;28;20035;-76
2023/01/29 04:23:23;;;;;;;10.70;5.75;;;;;;;-1.69;100.00;100695.63;5051212;28;20017;-76
2023/01/29 04:26:06;;;;;;;9.82;5.38;;;;;;;-1.71;100.00;100702.72;5051114;28;20047;-76
2023/01/29 04:29:18;;;;;;;9.70;5.63;;;;;;;-1.79;100.00;100706.66;5053067;28;20063;-76
2023/01/29 04:31:52;;;;;;;10.73;5.50;;;;;;;-1.91;100.00;100695.91;5030083;28;20045;-76
2023/01/29 04:34:18;;;;;;;12.57;5.78;;;;;;;-1.88;100.00;100706.22;5054893;28;20445;-76
2023/01/29 04:37:06;;;;;;;12.70;6.20;;;;;;;-1.91;100.00;100713.38;5055071;28;20189;-76
2023/01/29 04:39:56;;;;;;;10.52;5.50;;;;;;;-1.92;100.00;100711.69;5054861;28;20048;-76
2023/01/29 04:42:35;;;;;;;10.00;5.55;;;;;;;-1.95;100.00;100715.31;5054812;28;20017;-76
2023/01/29 04:45:17;;;;;;;10.80;5.65;;;;;;;-1.94;100.00;100713.53;5054831;28;20660;-76
2023/01/29 04:48:14;;;;;;;8.05;4.75;;;;;;;-2.02;100.00;100726.19;5054757;28;20051;-76
2023/01/29 04:50:48;;;;;;;10.68;5.68;;;;;;;-2.01;100.00;100728.75;5054675;28;20031;-76
2023/01/29 04:53:24;;;;;;;11.07;6.30;;;;;;;-2.07;100.00;100722.94;5054505;28;20075;-76
2023/01/29 04:56:18;;;;;;;13.02;6.10;;;;;;;-2.05;100.00;100728.97;5054546;28;20029;-76
2023/01/29 04:58:51;;;;;;;11.82;5.88;;;;;;;-2.04;100.00;100734.13;5071804;28;20028;-76
2023/01/29 05:01:18;;;;;;;12.25;6.43;;;;;;;-2.12;100.00;100730.19;5094639;28;20042;-76
2023/01/29 05:03:49;;;;;;;10.57;5.75;;;;;;;-2.13;100.00;100718.88;5072686;28;20060;-76
2023/01/29 05:06:17;;;;;;;11.35;6.03;;;;;;;-2.05;100.00;100726.34;5074309;28;20032;-76
2023/01/29 05:08:44;;;;;;;11.52;6.03;;;;;;;-2.07;100.00;100728.19;5074276;28;20028;-76
2023/01/29 05:11:13;;;;;;;14.00;6.53;;;;;;;-2.17;100.00;100717.31;5074121;28;20055;-76
2023/01/29 05:13:41;;;;;;;12.68;6.75;;;;;;;-2.08;100.00;100727.38;5074134;28;20032;-76
2023/01/29 05:16:13;;;;;;;13.70;6.25;;;;;;;-2.08;100.00;100723.91;5074176;28;20020;-76
2023/01/29 05:18:39;;;;;;;11.23;6.43;;;;;;;-2.18;100.00;100715.63;5074022;28;20040;-76
2023/01/29 05:21:07;;;;;;;14.90;6.13;;;;;;;-2.13;100.00;100707.56;5073950;28;20449;-76
2023/01/29 05:23:33;;;;;;;12.85;5.80;;;;;;;-2.25;100.00;100702.00;5072760;28;20452;-76
2023/01/29 05:25:59;;;;;;;11.88;6.00;;;;;;;-2.24;100.00;100700.25;5074030;28;20040;-76
2023/01/29 05:28:24;;;;;;;12.03;6.63;;;;;;;-2.23;100.00;100697.56;5072636;28;20725;-76
2023/01/29 05:30:53;;;;;;;11.47;6.30;;;;;;;-2.21;100.00;100692.25;5073940;28;20029;-76
2023/01/29 05:33:24;;;;;;;10.98;6.20;;;;;;;-2.33;100.00;100698.09;5073746;28;20056;-76
2023/01/29 05:35:50;;;;;;;11.40;6.40;;;;;;;-2.29;100.00;100704.84;5073824;28;20112;-76
2023/01/29 05:38:17;;;;;;;11.70;6.37;;;;;;;-2.24;100.00;100701.09;5073784;28;20143;-76
2023/01/29 05:40:43;;;;;;;12.23;6.22;;;;;;;-2.28;100.00;100702.16;5073820;28;20036;-76
2023/01/29 05:43:23;;;;;;;12.40;6.57;;;;;;;-2.40;100.00;100708.00;5073612;28;20023;-76
2023/01/29 05:45:56;;;;;;;11.30;5.93;;;;;;;-2.37;100.00;100699.16;5073567;28;20036;-76
2023/01/29 05:48:23;;;;;;;11.95;6.10;;;;;;;-2.46;100.00;100703.09;5073368;28;20044;-76
2023/01/29 05:50:49;;;;;;;11.20;6.65;;;;;;;-2.52;100.00;100700.75;5073675;28;20398;-76
2023/01/29 05:53:14;;;;;;;12.90;6.57;;;;;;;-2.43;100.00;100704.72;5073358;28;20043;-76
2023/01/29 05:55:44;;;;;;;11.20;6.37;;;;;;;-2.54;100.00;100696.56;5073414;28;20036;-76
2023/01/29 05:58:10;;;;;;;11.60;5.93;;;;;;;-2.59;100.00;100700.22;5069276;28;20103;-76
2023/01/29 06:00:36;;;;;;;12.33;6.90;;;;;;;-2.63;100.00;100703.06;5053264;28;20109;-76
2023/01/29 06:03:02;;;;;;;11.90;6.30;;;;;;;-2.59;100.00;100702.00;5054034;28;20028;-76
2023/01/29 06:05:27;;;;;;;11.97;6.83;;;;;;;-2.59;100.00;100695.00;5073155;28;20028;-76
2023/01/29 06:07:53;;;;;;;11.33;6.70;;;;;;;-2.59;100.00;100704.63;5073358;28;20279;-76
2023/01/29 06:10:18;;;;;;;12.47;6.77;;;;;;;-2.58;100.00;100706.31;5073190;28;20467;-76
2023/01/29 06:12:44;;;;;;;12.43;6.60;;;;;;;-2.52;100.00;100706.00;5073099;28;20081;-76
2023/01/29 06:15:11;;;;;;;12.10;6.70;;;;;;;-2.66;100.00;100711.09;5073000;28;20059;-76
2023/01/29 06:17:37;;;;;;;13.50;7.18;;;;;;;-2.62;100.00;100715.22;5072992;28;20036;-76
2023/01/29 06:20:04;;;;;;;13.73;6.97;;;;;;;-2.61;100.00;100716.91;5073114;28;20020;-76
2023/01/29 06:22:29;;;;;;;15.00;7.32;;;;;;;-2.59;100.00;100712.47;5072906;28;20028;-76
2023/01/29 06:24:55;;;;;;;11.97;6.77;;;;;;;-2.48;100.00;100709.31;5072910;28;20560;-76
2023/01/29 06:27:20;;;;;;;12.43;6.83;;;;;;;-2.51;100.00;100715.53;5073030;28;20021;-76
2023/01/29 06:29:46;;;;;;;12.23;6.70;;;;;;;-2.54;100.00;100707.88;5072788;28;20120;-76
2023/01/29 06:32:11;;;;;;;13.73;7.07;;;;;;;-2.43;100.00;100718.66;5072363;28;20048;-74
2023/01/29 06:34:37;;;;;;;12.53;6.90;;;;;;;-2.47;100.00;100721.47;5072586;28;20028;-75
2023/01/29 06:37:02;;;;;;;13.70;6.70;;;;;;;-2.43;100.00;100730.91;5072453;28;20082;-75
2023/01/29 06:39:28;;;;;;;16.47;6.77;;;;;;;-2.54;100.00;100731.41;5072305;28;20475;-75
2023/01/29 06:41:53;;;;;;;30.87;8.40;;;;;;;-2.55;100.00;100729.72;5072271;28;20525;-75
2023/01/29 06:44:19;;;;;;;15.40;6.90;;;;;;;-2.51;100.00;100733.00;5072120;28;20089;-74
2023/01/29 06:46:44;;;;;;;11.50;6.00;;;;;;;-2.47;100.00;100718.88;5072167;28;20033;-73
2023/01/29 06:49:10;;;;;;;12.63;7.03;;;;;;;-2.58;100.00;100722.88;5072026;28;20063;-76
2023/01/29 06:51:36;;;;;;;12.20;6.10;;;;;;;-2.53;100.00;100714.78;5071816;28;20406;-75
2023/01/29 06:54:02;;;;;;;12.53;6.87;;;;;;;-2.61;100.00;100714.31;5072109;28;20391;-76
2023/01/29 06:56:27;;;;;;;12.67;6.90;;;;;;;-2.64;100.00;100710.06;5054086;28;20110;-75
2023/01/29 06:58:53;;;;;;;12.83;7.00;;;;;;;-2.61;100.00;100703.84;5081978;28;20027;-75
2023/01/29 07:01:18;;;;;;;15.17;7.10;;;;;;;-2.62;100.00;100686.44;5092106;28;20077;-75
2023/01/29 07:03:47;;;;;;;13.63;7.30;;;;;;;-2.65;100.00;100684.81;5091859;28;20510;-75
2023/01/29 07:06:13;;;;;;;12.25;6.88;;;;;;;-2.62;100.00;100684.66;5092187;28;20429;-74
2023/01/29 07:08:39;;;;;;;14.77;7.60;;;;;;;-2.62;100.00;100689.06;5092044;28;20043;-74
2023/01/29 07:11:06;;;;;;;14.60;7.82;;;;;;;-2.60;100.00;100679.38;5091897;28;20031;-74
2023/01/29 07:13:32;;;;;;;13.32;7.10;;;;;;;-2.67;100.00;100689.31;5091938;28;20056;-74
2023/01/29 07:16:01;;;;;;;12.33;7.37;;;;;;;-2.66;100.00;100698.00;5091950;28;20101;-75
2023/01/29 07:18:28;;;;;;;12.65;6.95;;;;;;;-2.74;100.00;100700.13;5091677;28;20483;-74
2023/01/29 07:20:54;;;;;;;16.15;7.80;;;;;;;-2.75;100.00;100698.41;5091868;28;20082;-74
2023/01/29 07:23:19;;;;;;;12.90;7.53;;;;;;;-2.72;100.00;100693.91;5091767;28;20507;-74
2023/01/29 07:25:45;;;;;;;14.63;7.40;;;;;;;-2.68;100.00;100689.38;5091940;28;20028;-74
2023/01/29 07:28:10;;;;;;;12.70;6.83;;;;;;;-2.64;100.00;100698.75;5091752;28;20037;-74
2023/01/29 07:30:36;;;;;;;13.30;6.87;;;;;;;-2.62;100.00;100700.38;5091858;28;20447;-74
2023/01/29 07:33:07;;;;;;;11.50;6.60;;;;;;;-2.70;100.00;100688.59;5091670;28;20034;-76
2023/01/29 07:35:41;;;;;;;13.75;7.00;;;;;;;-2.70;100.00;100691.22;5091744;28;20738;-76
2023/01/29 07:38:10;;;;;;;12.93;6.85;;;;;;;-2.64;100.00;100686.50;5074480;28;20024;-77
2023/01/29 07:40:35;;;;;;;12.93;7.05;;;;;;;-2.53;100.00;100695.59;5093566;28;20020;-77
2023/01/29 07:43:17;;;;;;;11.87;5.93;;;;;;;-2.53;100.00;100688.59;5093699;28;20020;-78
2023/01/29 07:45:43;;;;;;;11.00;6.40;;;;;;;-2.58;100.00;100698.47;5093697;28;20387;-78
2023/01/29 07:48:19;;;;;;;12.33;6.87;;;;;;;-2.61;100.00;100691.59;5093535;28;20024;-78
2023/01/29 07:50:53;;;;;;;13.98;7.00;;;;;;;-2.69;100.00;100693.75;5093713;28;20028;-78
2023/01/29 07:53:20;;;;;;;13.88;7.03;;;;;;;-2.50;100.00;100698.06;5075236;28;20114;-78
2023/01/29 07:55:45;;;;;;;12.02;6.68;;;;;;;-2.51;100.00;100686.75;5093583;28;20119;-78
2023/01/29 07:58:42;;;;;;;13.10;7.20;;;;;;;-2.41;100.00;100693.22;5093454;28;20107;-78
2023/01/29 08:01:07;;;;;;;11.25;5.75;;;;;;;-2.43;100.00;100695.09;5093792;28;20028;-78
2023/01/29 08:03:33;;;;;;;11.83;6.23;;;;;;;-2.50;100.00;100693.69;5096195;28;20521;-77
2023/01/29 08:05:59;;;;;;;11.47;6.43;;;;;;;-2.42;100.00;100696.75;5097601;28;20028;-77
2023/01/29 08:08:25;;;;;;;13.67;7.00;;;;;;;-2.46;100.00;100690.00;5097432;28;20028;-79
2023/01/29 08:10:51;;;;;;;10.77;5.97;;;;;;;-2.43;100.00;100710.81;5079256;28;20119;-78
2023/01/29 08:13:25;;;;;;;11.33;6.20;;;;;;;-2.39;100.00;100693.16;5097415;28;20115;-77
2023/01/29 08:15:51;;;;;;;11.35;6.13;;;;;;;-2.31;100.00;100701.50;5097233;28;20111;-77
2023/01/29 08:18:22;;;;;;;11.60;6.63;;;;;;;-2.30;100.00;100696.16;5097567;28;20063;-77
2023/01/29 08:20:47;;;;;;;10.52;6.07;;;;;;;-2.25;100.00;100706.41;5097703;28;20047;-78
2023/01/29 08:23:15;;;;;;;13.33;7.27;;;;;;;-2.08;100.00;100705.56;5097030;28;20050;-77
2023/01/29 08:25:41;;;;;;;12.98;6.93;;;;;;;-2.06;100.00;100715.00;5096843;28;20016;-77
2023/01/29 08:28:07;;;;;;;10.83;6.90;;;;;;;-2.09;100.00;100714.34;5096326;28;20062;-75
2023/01/29 08:30:39;;;;;;;11.40;7.03;;;;;;;-2.15;100.00;100719.88;5095974;28;20031;-74
2023/01/29 08:33:04;;;;;;;11.52;6.60;;;;;;;-2.20;100.00;100730.59;5095717;28;20823;-72
2023/01/29 08:35:30;;;;;;;11.13;6.53;;;;;;;-2.16;100.00;100733.88;5095236;28;20035;-72
2023/01/29 08:37:59;;;;;;;12.32;6.72;;;;;;;-2.15;100.00;100732.97;5095654;28;20435;-74
2023/01/29 08:40:27;;;;;;;14.95;7.65;;;;;;;-2.28;100.00;100738.81;5095124;28;20510;-75
2023/01/29 08:42:56;;;;;;;12.00;7.00;;;;;;;-2.21;100.00;100742.00;5076864;28;20502;-75
2023/01/29 08:45:21;;;;;;;12.10;6.88;;;;;;;-2.20;100.00;100727.97;5075024;28;20507;-75
2023/01/29 08:47:48;;;;;;;11.90;6.77;;;;;;;-2.13;100.00;100746.84;5075360;28;20028;-75
2023/01/29 08:50:15;;;;;;;11.77;7.00;;;;;;;-2.13;100.00;100741.59;5057074;28;20373;-75
2023/01/29 08:52:42;;;;;;;12.18;6.90;;;;;;;-2.09;100.00;100744.00;5075124;28;20031;-75
2023/01/29 08:55:08;;;;;;;14.32;7.22;;;;;;;-1.96;100.00;100741.63;5057317;28;20032;-75
2023/01/29 08:57:34;;;;;;;12.88;7.40;;;;;;;-1.96;100.00;100752.09;5074999;28;20024;-75
2023/01/29 08:59:59;;;;;;;13.67;7.57;;;;;;;-1.84;100.00;100752.28;5094387;28;20028;-75
2023/01/29 09:02:25;;;;;;;14.20;7.63;;;;;;;-1.71;100.00;100755.13;5077182;28;20063;-75
2023/01/29 09:04:50;;;;;;;12.80;6.90;;;;;;;-1.62;100.00;100756.44;5073673;28;20139;-75
2023/01/29 09:07:17;;;;;;;13.17;7.47;;;;;;;-1.56;100.00;100753.50;5074855;28;20025;-75
2023/01/29 09:09:42;;;;;;;13.05;7.63;;;;;;;-1.50;100.00;100767.09;5075173;28;20043;-75
2023/01/29 09:12:07;;;;;;;11.80;6.83;;;;;;;-1.52;100.00;100758.50;5073714;28;20099;-75
2023/01/29 09:14:33;;;;;;;13.20;7.23;;;;;;;-1.52;100.00;100762.91;5073318;28;20036;-75
2023/01/29 09:16:58;;;;;;;15.03;7.80;;;;;;;-1.52;100.00;100758.50;5073716;28;20031;-75
2023/01/29 09:19:24;;;;;;;13.50;7.90;;;;;;;-1.43;100.00;100764.19;5073738;28;20111;-75
2023/01/29 09:21:49;;;;;;;14.80;8.20;;;;;;;-1.34;100.00;100763.69;5072409;28;20103;-75
2023/01/29 09:24:16;;;;;;;15.77;8.17;;;;;;;-1.34;100.00;100761.06;5072320;28;20031;-75
2023/01/29 09:26:42;;;;;;;13.70;7.70;;;;;;;-1.40;100.00;100750.91;5073658;28;20032;-75
2023/01/29 09:29:09;;;;;;;14.27;8.27;;;;;;;-1.37;100.00;100754.19;5073627;28;20052;-75
2023/01/29 09:31:35;;;;;;;13.88;8.23;;;;;;;-1.41;100.00;100763.19;5073372;28;20028;-75
2023/01/29 09:34:00;;;;;;;14.00;7.57;;;;;;;-1.22;100.00;100763.88;5073464;28;20031;-75
2023/01/29 09:36:26;;;;;;;13.33;7.97;;;;;;;-1.42;100.00;100758.84;5073468;28;20028;-75
2023/01/29 09:38:51;;;;;;;15.80;7.77;;;;;;;-1.46;100.00;100765.19;5073345;28;20035;-75
2023/01/29 09:41:56;;;;;;;12.40;7.37;;;;;;;-1.27;100.00;100767.69;5072298;28;20047;-75
2023/01/29 09:44:27;;;;;;;14.48;8.02;;;;;;;-1.16;100.00;100760.94;5073271;28;20450;-75
2023/01/29 09:46:55;;;;;;;14.40;7.90;;;;;;;-1.15;100.00;100772.25;5073580;28;20024;-75
2023/01/29 09:49:31;;;;;;;14.82;8.25;;;;;;;-1.20;100.00;100767.28;5073107;28;20033;-74
2023/01/29 09:52:18;;;;;;;12.82;7.57;;;;;;;-1.16;100.00;100765.34;5073327;28;20032;-75
2023/01/29 09:55:15;;;;;;;13.65;8.05;;;;;;;-1.07;100.00;100756.13;5073091;28;20462;-75
2023/01/29 09:57:57;;;;;;;14.43;8.75;;;;;;;-1.03;100.00;100745.34;5051588;28;20040;-75
2023/01/29 10:00:32;;;;;;;14.63;8.50;;;;;;;-0.99;100.00;100738.19;5033058;28;20060;-75
2023/01/29 10:03:28;;;;;;;14.90;8.13;;;;;;;-0.96;100.00;100736.25;5034267;28;20027;-75
2023/01/29 10:05:56;;;;;;;13.82;7.93;;;;;;;-0.94;100.00;100759.78;5035041;28;20025;-75
2023/01/29 10:08:46;;;;;;;14.13;8.23;;;;;;;-1.19;100.00;100761.09;5052917;28;20032;-75
2023/01/29 10:11:17;;;;;;;15.82;8.77;;;;;;;-0.94;100.00;100765.03;5035197;28;20075;-75
2023/01/29 10:13:51;;;;;;;15.52;8.82;;;;;;;-0.81;100.00;100758.19;5052725;28;20024;-75
2023/01/29 10:16:56;;;;;;;14.47;8.70;;;;;;;-0.95;100.00;100748.44;5052685;28;20029;-75
2023/01/29 10:20:00;;;;;;;13.65;8.45;;;;;;;-0.79;100.00;100753.66;5052511;28;20083;-75
2023/01/29 10:22:40;;;;;;;15.43;8.93;;;;;;;-0.75;100.00;100742.91;5049112;28;20033;-75
2023/01/29 10:25:14;;;;;;;15.60;8.73;;;;;;;-0.77;100.00;100739.53;5051916;28;20021;-75
2023/01/29 10:27:45;;;;;;;14.90;8.50;;;;;;;-0.65;100.00;100731.91;5052347;28;20061;-75
2023/01/29 10:30:37;;;;;;;15.68;8.90;;;;;;;-0.52;100.00;100746.88;5052440;28;20103;-74
2023/01/29 10:33:08;;;;;;;16.23;9.68;;;;;;;-0.54;100.00;100732.13;5034389;28;20029;-75
2023/01/29 10:35:40;;;;;;;15.70;8.90;;;;;;;-0.55;100.00;100735.69;5052241;28;20033;-75
2023/01/29 10:38:26;;;;;;;16.23;8.82;;;;;;;-0.54;100.00;100740.00;5052225;28;20032;-75
2023/01/29 10:41:03;;;;;;;15.85;8.68;;;;;;;-1.10;100.00;100733.53;5052174;28;20480;-75
2023/01/29 10:43:46;;;;;;;17.13;9.15;;;;;;;-0.89;100.00;100734.09;5052346;28;20546;-74
2023/01/29 10:46:26;;;;;;;16.40;9.65;;;;;;;-0.71;100.00;100733.09;5052081;28;20546;-75
2023/01/29 10:49:10;;;;;;;17.20;9.02;;;;;;;-0.75;100.00;100718.44;5052064;28;20040;-75
2023/01/29 10:52:14;;;;;;;15.73;9.13;;;;;;;-0.74;100.00;100720.16;5052120;28;20415;-75
2023/01/29 10:54:48;;;;;;;15.40;8.43;;;;;;;-0.75;100.00;100721.06;5052690;28;20024;-74
2023/01/29 10:57:41;;;;;;;14.43;8.70;;;;;;;-0.75;100.00;100721.91;5053040;28;20028;-74
2023/01/29 11:00:16;;;;;;;16.45;8.65;;;;;;;-0.70;100.00;100719.06;5035245;28;20482;-75
2023/01/29 11:02:44;;;;;;;17.00;9.32;;;;;;;-0.75;100.00;100716.66;5052822;28;20021;-75
2023/01/29 11:05:56;;;;;;;15.75;9.50;;;;;;;-0.54;100.00;100708.50;5052645;28;20037;-75
2023/01/29 11:08:27;;;;;;;16.65;9.57;;;;;;;-0.65;100.00;100700.41;5042061;28;20106;-78
2023/01/29 11:11:04;;;;;;;15.95;9.35;;;;;;;-0.65;100.00;100701.25;5035962;28;20044;-75
2023/01/29 11:13:46;;;;;;;16.00;8.90;;;;;;;-0.59;100.00;100694.81;5052955;28;20721;-75
2023/01/29 11:16:12;;;;;;;16.52;9.52;;;;;;;-0.55;100.00;100691.91;5053154;28;20029;-75
2023/01/29 11:19:00;;;;;;;18.92;10.93;;;;;;;-0.40;100.00;100680.53;5053096;28;20033;-75
2023/01/29 11:21:28;;;;;;;19.63;10.75;;;;;;;-0.19;100.00;100677.56;5053059;28;20035;-75
2023/01/29 11:24:15;;;;;;;16.48;9.27;;;;;;;-0.20;100.00;100668.00;5053724;28;20136;-77
2023/01/29 11:26:43;;;;;;;17.57;10.00;;;;;;;-0.10;100.00;100659.47;5054047;28;20356;-77
2023/01/29 11:29:27;;;;;;;16.93;9.63;;;;;;;-0.08;100.00;100652.34;5052938;28;20266;-76
2023/01/29 11:31:53;;;;;;;17.27;9.20;;;;;;;-0.04;100.00;100637.25;5052890;28;20298;-77
2023/01/29 11:34:21;;;;;;;18.07;10.23;;;;;;;0.08;100.00;100644.38;5052837;28;20079;-76
2023/01/29 11:36:59;;;;;;;16.67;9.70;;;;;;;0.16;100.00;100638.66;5052962;28;20103;-76
2023/01/29 11:39:27;;;;;;;19.03;10.00;;;;;;;0.22;100.00;100627.78;5053190;28;20262;-76
2023/01/29 11:41:52;;;;;;;14.18;8.85;;;;;;;0.23;100.00;100627.66;5052995;28;20250;-75
2023/01/29 11:44:28;;;;;;;15.70;8.50;;;;;;;0.22;100.00;100604.13;5035118;28;20062;-76
2023/01/29 11:46:56;;;;;;;17.10;9.60;;;;;;;-0.17;100.00;100587.22;5035197;28;20083;-77
2023/01/29 11:49:31;;;;;;;16.17;8.83;;;;;;;-0.28;100.00;100594.91;5053038;28;20270;-77
2023/01/29 11:52:01;;;;;;;16.25;8.95;;;;;;;-0.42;100.00;100585.22;5052923;28;20769;-76
2023/01/29 11:54:35;;;;;;;17.90;10.10;;;;;;;-0.40;100.00;100587.75;5054391;28;20025;-76
2023/01/29 11:57:02;;;;;;;15.82;8.75;;;;;;;-0.44;100.00;100573.13;5073391;28;20475;-76